Quitandinha, Brazil
Current Conditions -  °F | °C
As of 9:28 AM on Saturday 25 Oct 2014 (Local Time) from SBCT Reporting Station
Broken Clouds Broken Clouds  
Wind Chill: 64°   Ceiling: 1000
Heat Index: 64°   Visibility: 6mi
Dew Point: 57°   Wind: 3mph
Humidity: 77%   Direction: 280°W
Pressure: 30.09"   Gusts: NA
Location:  25.87°S, 49.5°W
Report Text: SBCT 251128Z 28003KT 9999 BKN010 18/14 Q1019
Loading
Personal Weather Stations






























Interactive Weather Map
Tropical Storm Tracking
New forecast layout! Learn more

10-Day Weather Forecast

Advertisements
Track Severe Weather on mobile